createdAt,value
2019-03-19T00:00:18.233Z,1020.02
2019-03-19T00:01:18.217Z,1020.02
2019-03-19T00:02:18.203Z,1020.04
2019-03-19T00:03:18.200Z,1020.03
2019-03-19T00:04:18.185Z,1020.01
2019-03-19T00:05:18.174Z,1019.98
2019-03-19T00:06:18.157Z,1020.04
2019-03-19T00:07:18.149Z,1020.04
2019-03-19T00:08:18.134Z,1020.02
2019-03-19T00:09:18.123Z,1020.03
2019-03-19T00:10:18.113Z,1020.03
2019-03-19T00:11:18.093Z,1020.01
2019-03-19T00:12:18.079Z,1019.96
2019-03-19T00:13:18.071Z,1019.97
2019-03-19T00:14:18.060Z,1019.99
2019-03-19T00:15:18.057Z,1019.98
2019-03-19T00:16:18.039Z,1019.97
2019-03-19T00:17:18.024Z,1019.98
2019-03-19T00:18:18.013Z,1020.00
2019-03-19T00:19:17.995Z,1019.98
2019-03-19T00:20:17.983Z,1020.05
2019-03-19T00:21:17.971Z,1020.03
2019-03-19T00:22:17.962Z,1020.06
2019-03-19T00:23:17.946Z,1020.09
2019-03-19T00:24:17.934Z,1020.04
2019-03-19T00:25:29.041Z,1020.04
2019-03-19T00:26:17.916Z,1020.07
2019-03-19T00:27:17.903Z,1020.09
2019-03-19T00:28:17.888Z,1020.09
2019-03-19T00:29:17.877Z,1020.06
2019-03-19T00:30:17.868Z,1020.02
2019-03-19T00:31:17.852Z,1019.99
2019-03-19T00:32:17.838Z,1020.07
2019-03-19T00:33:17.824Z,1020.06
2019-03-19T00:34:17.814Z,1020.05
2019-03-19T00:35:17.800Z,1020.07
2019-03-19T00:36:17.826Z,1020.09
2019-03-19T00:37:17.776Z,1020.08
2019-03-19T00:38:17.764Z,1020.12
2019-03-19T00:39:17.753Z,1020.09
2019-03-19T00:40:17.739Z,1020.08
2019-03-19T00:41:17.730Z,1020.08
2019-03-19T00:42:17.718Z,1020.09
2019-03-19T00:43:17.717Z,1020.06
2019-03-19T00:44:17.693Z,1020.06
2019-03-19T00:45:17.683Z,1020.02
2019-03-19T00:46:17.668Z,1020.13
2019-03-19T00:47:17.657Z,1020.08
2019-03-19T00:48:17.646Z,1020.14
2019-03-19T00:49:17.628Z,1020.15
2019-03-19T00:50:17.618Z,1020.16
2019-03-19T00:51:17.605Z,1020.24
2019-03-19T00:52:17.592Z,1020.22
2019-03-19T00:53:17.579Z,1020.23
2019-03-19T00:54:17.566Z,1020.21
2019-03-19T00:55:17.556Z,1020.22
2019-03-19T00:56:17.541Z,1020.21
2019-03-19T00:57:17.532Z,1020.21
2019-03-19T00:58:17.521Z,1020.16
2019-03-19T00:59:17.509Z,1020.14
2019-03-19T01:00:17.497Z,1020.17
2019-03-19T01:01:17.486Z,1020.18
2019-03-19T01:02:17.472Z,1020.27
2019-03-19T01:03:17.458Z,1020.26
2019-03-19T01:04:17.447Z,1020.24
2019-03-19T01:05:17.430Z,1020.29
2019-03-19T01:06:17.418Z,1020.28
2019-03-19T01:07:17.446Z,1020.26
2019-03-19T01:08:17.394Z,1020.28
2019-03-19T01:09:17.382Z,1020.27
2019-03-19T01:10:17.912Z,1020.29
2019-03-19T01:11:17.357Z,1020.26
2019-03-19T01:12:17.344Z,1020.25
2019-03-19T01:13:17.337Z,1020.30
2019-03-19T01:14:17.335Z,1020.26
2019-03-19T01:15:17.312Z,1020.32
2019-03-19T01:16:17.298Z,1020.33
2019-03-19T01:17:17.282Z,1020.35
2019-03-19T01:18:17.274Z,1020.37
2019-03-19T01:19:17.263Z,1020.42
2019-03-19T01:20:17.259Z,1020.48
2019-03-19T01:21:17.241Z,1020.47
2019-03-19T01:22:17.227Z,1020.42
2019-03-19T01:23:17.212Z,1020.47
2019-03-19T01:24:17.198Z,1020.43
2019-03-19T01:25:17.194Z,1020.41
2019-03-19T01:26:17.177Z,1020.41
2019-03-19T01:27:17.160Z,1020.35
2019-03-19T01:28:17.149Z,1020.37
2019-03-19T01:29:17.133Z,1020.34
2019-03-19T01:30:17.122Z,1020.37
2019-03-19T01:31:17.113Z,1020.29
2019-03-19T01:32:17.100Z,1020.35
2019-03-19T01:33:17.089Z,1020.40
2019-03-19T01:34:17.075Z,1020.31
2019-03-19T01:35:17.059Z,1020.35
2019-03-19T01:36:17.044Z,1020.34
2019-03-19T01:37:17.039Z,1020.34
2019-03-19T01:38:17.024Z,1020.39
2019-03-19T01:39:17.023Z,1020.39
2019-03-19T01:40:17.001Z,1020.40
2019-03-19T01:41:16.986Z,1020.43
2019-03-19T01:42:16.973Z,1020.47
2019-03-19T01:43:16.966Z,1020.44
2019-03-19T01:44:16.951Z,1020.49
2019-03-19T01:45:16.942Z,1020.47
2019-03-19T01:46:16.926Z,1020.49
2019-03-19T01:47:16.908Z,1020.50
2019-03-19T01:48:16.894Z,1020.47
2019-03-19T01:49:16.881Z,1020.56
2019-03-19T01:50:16.869Z,1020.51
2019-03-19T01:51:16.865Z,1020.52
2019-03-19T01:52:16.849Z,1020.55
2019-03-19T01:53:16.838Z,1020.55
2019-03-19T01:54:16.826Z,1020.53
2019-03-19T01:55:16.810Z,1020.53
2019-03-19T01:56:16.796Z,1020.60
2019-03-19T01:57:16.789Z,1020.57
2019-03-19T01:58:16.778Z,1020.52
2019-03-19T01:59:16.762Z,1020.50
2019-03-19T02:00:16.750Z,1020.55
2019-03-19T02:01:16.731Z,1020.53
2019-03-19T02:02:16.719Z,1020.56
2019-03-19T02:03:16.710Z,1020.50
2019-03-19T02:04:16.696Z,1020.54
2019-03-19T02:05:16.688Z,1020.56
2019-03-19T02:06:16.672Z,1020.59
2019-03-19T02:07:16.654Z,1020.62
2019-03-19T02:08:16.641Z,1020.65
2019-03-19T02:09:16.631Z,1020.70
2019-03-19T02:10:16.634Z,1020.73
2019-03-19T02:11:16.612Z,1020.74
2019-03-19T02:12:16.601Z,1020.74
2019-03-19T02:13:16.584Z,1020.78
2019-03-19T02:14:16.570Z,1020.75
2019-03-19T02:15:16.563Z,1020.82
2019-03-19T02:16:16.547Z,1020.75
2019-03-19T02:17:16.534Z,1020.77
2019-03-19T02:18:16.520Z,1020.75
2019-03-19T02:19:16.505Z,1020.72
2019-03-19T02:20:16.490Z,1020.73
2019-03-19T02:21:16.478Z,1020.69
2019-03-19T02:22:16.469Z,1020.67
2019-03-19T02:23:16.458Z,1020.69
2019-03-19T02:24:16.447Z,1020.63
2019-03-19T02:25:16.431Z,1020.70
2019-03-19T02:26:17.056Z,1020.74
2019-03-19T02:27:16.401Z,1020.75
2019-03-19T02:28:16.387Z,1020.79
2019-03-19T02:29:16.379Z,1020.80
2019-03-19T02:30:16.378Z,1020.85
2019-03-19T02:31:16.349Z,1020.83
2019-03-19T02:32:16.336Z,1020.82
2019-03-19T02:33:16.325Z,1020.83
2019-03-19T02:34:16.315Z,1020.85
2019-03-19T02:35:16.315Z,1020.82
2019-03-19T02:36:16.292Z,1020.84
2019-03-19T02:37:16.283Z,1020.83
2019-03-19T02:38:16.269Z,1020.82
2019-03-19T02:39:16.250Z,1020.83
2019-03-19T02:40:16.262Z,1020.85
2019-03-19T02:41:16.219Z,1020.87
2019-03-19T02:42:16.209Z,1020.86
2019-03-19T02:43:16.200Z,1020.80
2019-03-19T02:44:16.192Z,1020.83
2019-03-19T02:45:16.174Z,1020.85
2019-03-19T02:46:16.156Z,1020.87
2019-03-19T02:47:16.150Z,1020.84
2019-03-19T02:48:16.136Z,1020.89
2019-03-19T02:49:16.127Z,1020.98
2019-03-19T02:50:16.124Z,1020.97
2019-03-19T02:51:16.099Z,1021.01
2019-03-19T02:52:16.096Z,1021.01
2019-03-19T02:53:16.070Z,1021.03
2019-03-19T02:54:16.055Z,1021.01
2019-03-19T02:55:16.073Z,1021.07
2019-03-19T02:56:31.346Z,1021.04
2019-03-19T02:57:16.021Z,1021.10
2019-03-19T02:58:16.008Z,1021.10
2019-03-19T02:59:15.993Z,1021.17
2019-03-19T03:00:15.978Z,1021.12
2019-03-19T03:01:15.970Z,1021.16
2019-03-19T03:02:15.958Z,1021.19
2019-03-19T03:03:15.947Z,1021.18
2019-03-19T03:04:15.932Z,1021.18
2019-03-19T03:05:15.930Z,1021.20
2019-03-19T03:06:15.903Z,1021.19
2019-03-19T03:07:15.892Z,1021.23
2019-03-19T03:08:15.880Z,1021.19
2019-03-19T03:09:15.867Z,1021.22
2019-03-19T03:10:15.854Z,1021.27
2019-03-19T03:11:15.836Z,1021.25
2019-03-19T03:12:15.824Z,1021.25
2019-03-19T03:13:15.809Z,1021.24
2019-03-19T03:14:15.795Z,1021.28
2019-03-19T03:15:15.788Z,1021.26
2019-03-19T03:16:15.774Z,1021.32
2019-03-19T03:17:15.757Z,1021.35
2019-03-19T03:18:15.747Z,1021.37
2019-03-19T03:19:15.738Z,1021.35
2019-03-19T03:20:15.730Z,1021.28
2019-03-19T03:21:15.716Z,1021.29
2019-03-19T03:22:15.699Z,1021.26
2019-03-19T03:23:15.684Z,1021.29
2019-03-19T03:24:15.669Z,1021.21
2019-03-19T03:25:15.652Z,1021.28
2019-03-19T03:26:15.639Z,1021.26
2019-03-19T03:27:15.632Z,1021.30
2019-03-19T03:28:15.655Z,1021.26
2019-03-19T03:29:15.611Z,1021.32
2019-03-19T03:30:15.594Z,1021.24
2019-03-19T03:31:15.701Z,1021.24
2019-03-19T03:32:15.565Z,1021.24
2019-03-19T03:33:15.556Z,1021.26
2019-03-19T03:34:15.553Z,1021.26
2019-03-19T03:35:15.597Z,1021.35
2019-03-19T03:36:15.516Z,1021.36
2019-03-19T03:37:15.496Z,1021.36
2019-03-19T03:38:15.487Z,1021.38
2019-03-19T03:39:15.474Z,1021.38
2019-03-19T03:40:15.462Z,1021.43
2019-03-19T03:41:15.448Z,1021.35
2019-03-19T03:42:15.436Z,1021.37
2019-03-19T03:43:15.418Z,1021.36
2019-03-19T03:44:15.406Z,1021.36
2019-03-19T03:45:15.396Z,1021.39
2019-03-19T03:46:15.386Z,1021.44
2019-03-19T03:47:15.372Z,1021.44
2019-03-19T03:48:15.360Z,1021.47
2019-03-19T03:49:15.347Z,1021.47
2019-03-19T03:50:15.330Z,1021.50
2019-03-19T03:51:15.324Z,1021.48
2019-03-19T03:52:15.309Z,1021.54
2019-03-19T03:53:15.305Z,1021.49
2019-03-19T03:54:15.279Z,1021.46
2019-03-19T03:55:15.263Z,1021.52
2019-03-19T03:56:15.248Z,1021.56
2019-03-19T03:57:15.241Z,1021.53
2019-03-19T03:58:15.223Z,1021.56
2019-03-19T03:59:15.217Z,1021.57
2019-03-19T04:00:15.216Z,1021.56
2019-03-19T04:01:15.190Z,1021.55
2019-03-19T04:02:15.181Z,1021.53
2019-03-19T04:03:15.162Z,1021.57
2019-03-19T04:04:15.159Z,1021.62
2019-03-19T04:05:15.140Z,1021.57
2019-03-19T04:06:15.130Z,1021.61
2019-03-19T04:07:15.108Z,1021.60
2019-03-19T04:08:15.094Z,1021.63
2019-03-19T04:09:15.080Z,1021.61
2019-03-19T04:10:15.067Z,1021.67
2019-03-19T04:11:15.071Z,1021.68
2019-03-19T04:12:15.047Z,1021.71
2019-03-19T04:13:15.033Z,1021.60
2019-03-19T04:14:15.018Z,1021.60
2019-03-19T04:15:15.014Z,1021.55
2019-03-19T04:16:14.986Z,1021.54
2019-03-19T04:17:14.994Z,1021.56
2019-03-19T04:18:14.963Z,1021.54
2019-03-19T04:19:14.954Z,1021.54
2019-03-19T04:20:14.940Z,1021.53
2019-03-19T04:21:14.923Z,1021.54
2019-03-19T04:22:16.061Z,1021.58
2019-03-19T04:23:14.901Z,1021.58
2019-03-19T04:24:14.888Z,1021.53
2019-03-19T04:25:14.886Z,1021.57
2019-03-19T04:26:14.861Z,1021.62
2019-03-19T04:27:16.184Z,1021.65
2019-03-19T04:28:14.828Z,1021.67
2019-03-19T04:29:14.824Z,1021.67
2019-03-19T04:30:14.805Z,1021.74
2019-03-19T04:31:14.797Z,1021.75
2019-03-19T04:32:14.783Z,1021.77
2019-03-19T04:33:14.770Z,1021.71
2019-03-19T04:34:14.755Z,1021.76
2019-03-19T04:35:14.745Z,1021.80
2019-03-19T04:36:14.723Z,1021.82
2019-03-19T04:37:14.715Z,1021.90
2019-03-19T04:38:14.702Z,1021.92
2019-03-19T04:39:14.684Z,1021.88
2019-03-19T04:40:14.670Z,1021.90
2019-03-19T04:41:14.671Z,1021.84
2019-03-19T04:42:14.649Z,1021.89
2019-03-19T04:43:14.645Z,1021.88
2019-03-19T04:44:14.625Z,1021.89
2019-03-19T04:45:14.611Z,1021.88
2019-03-19T04:46:14.598Z,1021.96
2019-03-19T04:47:14.584Z,1021.92
2019-03-19T04:48:14.567Z,1021.92
2019-03-19T04:49:14.552Z,1021.96
2019-03-19T04:50:14.587Z,1021.95
2019-03-19T04:51:14.531Z,1021.95
2019-03-19T04:52:14.517Z,1022.00
2019-03-19T04:53:14.498Z,1022.04
2019-03-19T04:54:14.488Z,1022.03
2019-03-19T04:55:14.478Z,1022.05
2019-03-19T04:56:14.465Z,1022.07
2019-03-19T04:57:14.454Z,1022.05
2019-03-19T04:58:14.440Z,1022.02
2019-03-19T04:59:14.423Z,1022.01
2019-03-19T05:00:14.409Z,1022.07
2019-03-19T05:01:14.396Z,1022.07
2019-03-19T05:02:14.385Z,1022.05
2019-03-19T05:03:14.376Z,1022.05
2019-03-19T05:04:14.361Z,1022.09
2019-03-19T05:05:14.347Z,1022.04
2019-03-19T05:06:14.331Z,1022.01
2019-03-19T05:07:14.316Z,1022.02
2019-03-19T05:08:14.301Z,1022.03
2019-03-19T05:09:14.291Z,1021.99
2019-03-19T05:10:14.289Z,1022.02
2019-03-19T05:11:14.261Z,1022.05
2019-03-19T05:12:14.248Z,1022.02
2019-03-19T05:13:14.239Z,1022.04
2019-03-19T05:14:14.223Z,1022.06
2019-03-19T05:15:14.231Z,1022.08
2019-03-19T05:16:14.201Z,1022.11
2019-03-19T05:17:14.188Z,1022.15
2019-03-19T05:18:14.175Z,1022.11
2019-03-19T05:19:14.158Z,1022.15
2019-03-19T05:20:14.144Z,1022.12
2019-03-19T05:21:14.127Z,1022.14
2019-03-19T05:22:14.117Z,1022.12
2019-03-19T05:23:14.107Z,1022.14
2019-03-19T05:24:14.098Z,1022.12
2019-03-19T05:25:14.078Z,1022.06
2019-03-19T05:26:14.061Z,1022.09
2019-03-19T05:27:14.153Z,1022.10
2019-03-19T05:28:14.040Z,1022.13
2019-03-19T05:29:14.029Z,1022.14
2019-03-19T05:30:14.016Z,1022.13
2019-03-19T05:31:13.998Z,1022.16
2019-03-19T05:32:13.984Z,1022.13
2019-03-19T05:33:13.972Z,1022.10
2019-03-19T05:34:13.957Z,1022.13
2019-03-19T05:35:13.955Z,1022.15
2019-03-19T05:36:13.935Z,1022.18
2019-03-19T05:37:13.919Z,1022.14
2019-03-19T05:38:13.909Z,1022.19
2019-03-19T05:39:13.888Z,1022.18
2019-03-19T05:40:13.875Z,1022.17
2019-03-19T05:41:13.869Z,1022.22
2019-03-19T05:42:13.891Z,1022.24
2019-03-19T05:43:13.836Z,1022.23
2019-03-19T05:44:13.827Z,1022.33
2019-03-19T05:45:13.811Z,1022.30
2019-03-19T05:46:13.797Z,1022.37
2019-03-19T05:47:13.789Z,1022.40
2019-03-19T05:48:13.775Z,1022.40
2019-03-19T05:49:13.765Z,1022.46
2019-03-19T05:50:13.750Z,1022.44
2019-03-19T05:51:13.731Z,1022.36
2019-03-19T05:52:13.721Z,1022.34
2019-03-19T05:53:13.708Z,1022.40
2019-03-19T05:54:13.688Z,1022.39
2019-03-19T05:55:13.683Z,1022.43
2019-03-19T05:56:13.667Z,1022.38
2019-03-19T05:57:13.647Z,1022.44
2019-03-19T05:58:13.635Z,1022.46
2019-03-19T05:59:13.627Z,1022.55
2019-03-19T06:00:13.615Z,1022.56
2019-03-19T06:01:13.602Z,1022.52
2019-03-19T06:02:13.589Z,1022.59
2019-03-19T06:03:13.575Z,1022.64
2019-03-19T06:04:13.558Z,1022.65
2019-03-19T06:05:13.546Z,1022.65
2019-03-19T06:06:13.533Z,1022.65
2019-03-19T06:07:13.523Z,1022.64
2019-03-19T06:08:13.517Z,1022.62
2019-03-19T06:09:13.500Z,1022.70
2019-03-19T06:10:13.490Z,1022.72
2019-03-19T06:11:13.466Z,1022.77
2019-03-19T06:12:13.451Z,1022.85
2019-03-19T06:13:13.445Z,1022.94
2019-03-19T06:14:13.433Z,1022.99
2019-03-19T06:15:13.417Z,1023.10
2019-03-19T06:16:13.400Z,1023.24
2019-03-19T06:17:13.394Z,1023.21
2019-03-19T06:18:13.378Z,1023.27
2019-03-19T06:19:13.373Z,1023.36
2019-03-19T06:20:13.358Z,1023.29
2019-03-19T06:21:13.347Z,1023.28
2019-03-19T06:22:13.337Z,1023.28
2019-03-19T06:23:13.318Z,1023.31
2019-03-19T06:24:13.306Z,1023.31
2019-03-19T06:25:13.303Z,1023.41
2019-03-19T06:26:13.282Z,1023.42
2019-03-19T06:27:13.275Z,1023.42
2019-03-19T06:28:13.264Z,1023.52
2019-03-19T06:29:13.256Z,1023.49
2019-03-19T06:30:13.243Z,1023.54
2019-03-19T06:31:13.235Z,1023.61
2019-03-19T06:32:13.223Z,1023.66
2019-03-19T06:33:13.213Z,1023.65
2019-03-19T06:34:13.204Z,1023.72
2019-03-19T06:35:13.191Z,1023.79
2019-03-19T06:36:13.179Z,1023.82
2019-03-19T06:37:13.169Z,1023.85
2019-03-19T06:38:13.159Z,1023.87
2019-03-19T06:39:13.155Z,1023.85
2019-03-19T06:40:13.146Z,1023.86
2019-03-19T06:41:13.140Z,1023.82
2019-03-19T06:42:13.133Z,1023.85
2019-03-19T06:43:13.120Z,1023.86
2019-03-19T06:44:13.114Z,1023.91
2019-03-19T06:45:13.109Z,1023.97
2019-03-19T06:46:13.104Z,1023.99
2019-03-19T06:47:13.092Z,1024.02
2019-03-19T06:48:13.084Z,1024.10
2019-03-19T06:49:13.075Z,1024.10
2019-03-19T06:50:13.070Z,1024.17
2019-03-19T06:51:13.069Z,1024.18
2019-03-19T06:52:13.063Z,1024.25
2019-03-19T06:53:13.058Z,1024.21
2019-03-19T06:54:13.054Z,1024.31
2019-03-19T06:55:13.043Z,1024.32
2019-03-19T06:56:14.910Z,1024.34
2019-03-19T06:57:13.036Z,1024.30
2019-03-19T06:58:13.032Z,1024.35
2019-03-19T06:59:13.035Z,1024.38
2019-03-19T07:00:13.025Z,1024.37
2019-03-19T07:01:13.018Z,1024.42
2019-03-19T07:02:13.016Z,1024.41
2019-03-19T07:03:13.016Z,1024.42
2019-03-19T07:04:13.014Z,1024.46
2019-03-19T07:05:13.008Z,1024.53
2019-03-19T07:06:13.005Z,1024.52
2019-03-19T07:07:13.002Z,1024.57
2019-03-19T07:08:12.994Z,1024.58
2019-03-19T07:09:12.994Z,1024.62
2019-03-19T07:10:12.991Z,1024.64
2019-03-19T07:11:13.056Z,1024.69
2019-03-19T07:12:13.005Z,1024.66
2019-03-19T07:13:12.992Z,1024.64
2019-03-19T07:14:12.990Z,1024.64
2019-03-19T07:15:12.986Z,1024.61
2019-03-19T07:16:12.981Z,1024.61
2019-03-19T07:17:12.985Z,1024.65
2019-03-19T07:18:12.986Z,1024.66
2019-03-19T07:19:12.979Z,1024.72
2019-03-19T07:20:12.979Z,1024.73
2019-03-19T07:21:12.975Z,1024.73
2019-03-19T07:22:12.973Z,1024.81
2019-03-19T07:23:12.979Z,1024.84
2019-03-19T07:24:12.976Z,1024.87
2019-03-19T07:25:12.977Z,1024.83
2019-03-19T07:26:12.977Z,1024.84
2019-03-19T07:27:12.974Z,1024.83
2019-03-19T07:28:21.671Z,1024.87
2019-03-19T07:29:12.975Z,1024.84
2019-03-19T07:30:12.975Z,1024.85
2019-03-19T07:31:12.980Z,1024.87
2019-03-19T07:32:12.980Z,1024.89
2019-03-19T07:33:12.978Z,1024.91
2019-03-19T07:34:12.978Z,1024.92
2019-03-19T07:35:12.983Z,1024.94
2019-03-19T07:36:12.983Z,1024.95
2019-03-19T07:37:12.982Z,1024.91
2019-03-19T07:38:12.985Z,1024.97
2019-03-19T07:39:12.982Z,1024.96
2019-03-19T07:40:12.983Z,1024.99
2019-03-19T07:41:12.985Z,1024.99
2019-03-19T07:42:12.995Z,1024.97
2019-03-19T07:43:12.994Z,1025.00
2019-03-19T07:44:12.995Z,1025.00
2019-03-19T07:45:12.996Z,1025.07
2019-03-19T07:46:12.997Z,1025.08
2019-03-19T07:47:12.996Z,1025.12
2019-03-19T07:48:12.996Z,1025.12
2019-03-19T07:49:13.003Z,1025.18
2019-03-19T07:50:13.008Z,1025.19
2019-03-19T07:51:13.003Z,1025.18
2019-03-19T07:52:13.006Z,1025.17
2019-03-19T07:53:13.010Z,1025.23
2019-03-19T07:54:13.012Z,1025.23
2019-03-19T07:55:13.022Z,1025.28
2019-03-19T07:56:13.021Z,1025.19
2019-03-19T07:57:13.025Z,1025.21
2019-03-19T07:58:13.027Z,1025.27
2019-03-19T07:59:13.025Z,1025.27
2019-03-19T08:00:13.027Z,1025.26
2019-03-19T08:01:13.028Z,1025.25
2019-03-19T08:02:13.033Z,1025.31
2019-03-19T08:03:16.290Z,1025.30
2019-03-19T08:04:13.042Z,1025.22
2019-03-19T08:05:13.042Z,1025.24
2019-03-19T08:06:13.043Z,1025.27
2019-03-19T08:07:13.054Z,1025.31
2019-03-19T08:08:13.055Z,1025.33
2019-03-19T08:09:13.060Z,1025.34
2019-03-19T08:10:13.068Z,1025.33
2019-03-19T08:11:13.250Z,1025.34
2019-03-19T08:12:13.069Z,1025.33
2019-03-19T08:13:13.073Z,1025.28
2019-03-19T08:14:13.075Z,1025.39
2019-03-19T08:15:13.086Z,1025.42
2019-03-19T08:16:13.087Z,1025.49
2019-03-19T08:17:13.091Z,1025.51
2019-03-19T08:18:13.095Z,1025.50
2019-03-19T08:19:13.095Z,1025.56
2019-03-19T08:20:13.099Z,1025.54
2019-03-19T08:21:13.109Z,1025.57
2019-03-19T08:22:13.113Z,1025.51
2019-03-19T08:23:13.115Z,1025.49
2019-03-19T08:24:13.118Z,1025.55
2019-03-19T08:25:13.126Z,1025.54
2019-03-19T08:26:13.132Z,1025.54
2019-03-19T08:27:13.141Z,1024.62
2019-03-19T08:28:13.146Z,1024.67
2019-03-19T08:29:13.151Z,1024.68
2019-03-19T08:30:13.157Z,1024.71
2019-03-19T08:31:13.157Z,1024.67
2019-03-19T08:32:13.163Z,1024.67
2019-03-19T08:33:13.166Z,1024.66
2019-03-19T08:34:13.170Z,1024.73
2019-03-19T08:35:13.184Z,1024.71
2019-03-19T08:36:13.186Z,1024.73
2019-03-19T08:37:15.487Z,1024.79
2019-03-19T08:38:13.194Z,1024.79
2019-03-19T08:39:13.203Z,1024.80
2019-03-19T08:40:13.209Z,1024.86
2019-03-19T08:41:13.218Z,1024.87
2019-03-19T08:42:13.222Z,1024.86
2019-03-19T08:43:13.225Z,1024.92
2019-03-19T08:44:13.231Z,1024.84
2019-03-19T08:45:13.236Z,1024.88
2019-03-19T08:46:13.241Z,1024.87
2019-03-19T08:47:13.252Z,1024.92
2019-03-19T08:48:13.260Z,1024.95
2019-03-19T08:49:13.267Z,1024.97
2019-03-19T08:50:13.276Z,1024.93
2019-03-19T08:51:13.278Z,1024.95
2019-03-19T08:52:13.284Z,1025.01
2019-03-19T08:53:13.296Z,1025.04
2019-03-19T08:54:13.304Z,1025.04
2019-03-19T08:55:13.306Z,1025.06
2019-03-19T08:56:13.316Z,1025.08
2019-03-19T08:57:13.319Z,1025.13
2019-03-19T08:58:13.326Z,1025.17
2019-03-19T08:59:13.340Z,1025.21
2019-03-19T09:00:13.346Z,1025.24
2019-03-19T09:01:13.355Z,1025.22
2019-03-19T09:02:13.363Z,1025.24
2019-03-19T09:03:13.367Z,1025.27
2019-03-19T09:04:13.372Z,1025.23
2019-03-19T09:05:13.387Z,1025.21
2019-03-19T09:06:13.394Z,1025.22
2019-03-19T09:07:13.406Z,1025.22
2019-03-19T09:08:13.416Z,1025.16
2019-03-19T09:09:13.419Z,1025.20
2019-03-19T09:10:13.426Z,1025.24
2019-03-19T09:11:13.441Z,1025.24
2019-03-19T09:12:13.447Z,1025.25
2019-03-19T09:13:13.455Z,1025.24
2019-03-19T09:14:13.464Z,1025.31
2019-03-19T09:15:13.468Z,1025.28
2019-03-19T09:16:13.478Z,1025.25
2019-03-19T09:17:13.487Z,1025.27
2019-03-19T09:18:13.494Z,1025.28
2019-03-19T09:19:13.511Z,1025.32
2019-03-19T09:20:13.518Z,1025.33
2019-03-19T09:21:13.532Z,1025.30
2019-03-19T09:22:13.540Z,1025.26
2019-03-19T09:23:13.545Z,1025.28
2019-03-19T09:24:13.556Z,1025.30
2019-03-19T09:25:13.568Z,1025.33
2019-03-19T09:26:13.582Z,1025.33
2019-03-19T09:27:13.585Z,1025.30
2019-03-19T09:28:13.594Z,1025.32
2019-03-19T09:29:17.044Z,1025.35
2019-03-19T09:30:13.625Z,1025.37
2019-03-19T09:31:13.628Z,1025.46
2019-03-19T09:32:13.642Z,1025.49
2019-03-19T09:33:13.647Z,1025.50
2019-03-19T09:34:13.660Z,1025.58
2019-03-19T09:35:13.664Z,1025.60
2019-03-19T09:36:13.678Z,1025.63
2019-03-19T09:37:13.691Z,1025.67
2019-03-19T09:38:13.698Z,1025.65
2019-03-19T09:39:13.750Z,1025.66
2019-03-19T09:40:13.725Z,1025.67
2019-03-19T09:41:13.732Z,1025.71
2019-03-19T09:42:13.744Z,1025.74
2019-03-19T09:43:13.761Z,1025.77
2019-03-19T09:44:13.771Z,1025.78
2019-03-19T09:45:13.780Z,1025.79
2019-03-19T09:46:13.790Z,1025.83
2019-03-19T09:47:13.798Z,1025.90
2019-03-19T09:48:13.809Z,1025.88
2019-03-19T09:49:13.828Z,1025.91
2019-03-19T09:50:13.844Z,1025.89
2019-03-19T09:51:13.848Z,1025.89
2019-03-19T09:52:13.859Z,1025.89
2019-03-19T09:53:13.868Z,1025.88
2019-03-19T09:54:13.883Z,1025.82
2019-03-19T09:55:13.899Z,1025.75
2019-03-19T09:56:13.916Z,1025.67
2019-03-19T09:57:13.915Z,1025.62
2019-03-19T09:58:13.928Z,1025.59
2019-03-19T09:59:13.948Z,1025.59
2019-03-19T10:00:13.956Z,1025.58
2019-03-19T10:01:13.971Z,1025.52
2019-03-19T10:02:13.982Z,1025.53
2019-03-19T10:03:13.993Z,1025.47
2019-03-19T10:04:14.003Z,1025.48
2019-03-19T10:05:14.016Z,1025.37
2019-03-19T10:06:14.564Z,1025.38
2019-03-19T10:07:14.045Z,1025.41
2019-03-19T10:08:14.058Z,1025.37
2019-03-19T10:09:14.066Z,1025.37
2019-03-19T10:10:14.079Z,1025.32
2019-03-19T10:11:14.087Z,1025.40
2019-03-19T10:12:14.100Z,1025.34
2019-03-19T10:13:15.173Z,1025.35
2019-03-19T10:14:14.127Z,1025.32
2019-03-19T10:15:14.135Z,1025.32
2019-03-19T10:16:14.145Z,1025.35
2019-03-19T10:17:14.161Z,1025.34
2019-03-19T10:18:14.173Z,1025.37
2019-03-19T10:19:14.187Z,1025.35
2019-03-19T10:20:14.203Z,1025.36
2019-03-19T10:21:14.211Z,1025.38
2019-03-19T10:22:15.299Z,1025.37
2019-03-19T10:23:14.232Z,1025.35
2019-03-19T10:24:14.241Z,1025.31
2019-03-19T10:25:14.250Z,1025.28
2019-03-19T10:26:14.262Z,1025.27
2019-03-19T10:27:14.279Z,1025.30
2019-03-19T10:28:14.290Z,1025.29
2019-03-19T10:29:14.298Z,1025.27
2019-03-19T10:30:14.308Z,1025.29
2019-03-19T10:31:14.328Z,1025.25
2019-03-19T10:32:14.341Z,1025.22
2019-03-19T10:33:16.044Z,1025.22
2019-03-19T10:34:14.363Z,1025.22
2019-03-19T10:35:14.369Z,1025.18
2019-03-19T10:36:14.381Z,1025.21
2019-03-19T10:37:14.392Z,1025.24
2019-03-19T10:38:14.406Z,1025.07
2019-03-19T10:39:14.421Z,1025.12
2019-03-19T10:40:14.436Z,1025.15
2019-03-19T10:41:14.444Z,1025.17
2019-03-19T10:42:14.454Z,1025.21
2019-03-19T10:43:14.463Z,1025.16
2019-03-19T10:44:14.472Z,1025.16
2019-03-19T10:45:14.488Z,1025.17
2019-03-19T10:46:14.969Z,1025.16
2019-03-19T10:47:14.506Z,1025.15
2019-03-19T10:48:14.518Z,1025.18
2019-03-19T10:49:14.531Z,1025.15
2019-03-19T10:50:14.543Z,1025.16
2019-03-19T10:51:14.560Z,1025.20
2019-03-19T10:52:14.569Z,1025.20
2019-03-19T10:53:14.580Z,1025.20
2019-03-19T10:54:14.591Z,1025.23
2019-03-19T10:55:14.596Z,1025.23
2019-03-19T10:56:14.608Z,1025.20
2019-03-19T10:57:14.623Z,1025.22
2019-03-19T10:58:14.635Z,1025.20
2019-03-19T10:59:14.650Z,1025.18
2019-03-19T11:00:14.660Z,1025.13
2019-03-19T11:01:14.668Z,1025.17
2019-03-19T11:02:14.681Z,1025.15
2019-03-19T11:03:14.697Z,1025.15
2019-03-19T11:04:14.708Z,1025.18
2019-03-19T11:05:14.720Z,1025.15
2019-03-19T11:06:14.733Z,1025.26
2019-03-19T11:07:15.375Z,1025.25
2019-03-19T11:08:14.750Z,1025.29
2019-03-19T11:09:14.759Z,1025.29
2019-03-19T11:10:14.771Z,1025.28
2019-03-19T11:11:14.788Z,1025.29
2019-03-19T11:12:14.799Z,1025.26
2019-03-19T11:13:14.811Z,1025.27
2019-03-19T11:14:14.825Z,1025.28
2019-03-19T11:15:14.830Z,1025.27
2019-03-19T11:16:14.849Z,1025.24
2019-03-19T11:17:14.861Z,1025.24
2019-03-19T11:18:14.868Z,1025.29
2019-03-19T11:19:14.877Z,1025.28
2019-03-19T11:20:14.887Z,1025.22
2019-03-19T11:21:14.896Z,1025.28
2019-03-19T11:22:14.908Z,1025.28
2019-03-19T11:23:14.924Z,1025.29
2019-03-19T11:24:14.936Z,1025.24
2019-03-19T11:25:14.953Z,1025.26
2019-03-19T11:26:14.956Z,1025.24
2019-03-19T11:27:14.962Z,1025.24
2019-03-19T11:28:14.972Z,1025.28
2019-03-19T11:29:14.989Z,1025.29
2019-03-19T11:30:14.997Z,1025.25
2019-03-19T11:31:15.015Z,1025.18
2019-03-19T11:32:15.021Z,1025.10
2019-03-19T11:33:15.030Z,1025.05
2019-03-19T11:34:15.038Z,1025.00
2019-03-19T11:35:15.052Z,1024.94
2019-03-19T11:36:15.061Z,1024.92
2019-03-19T11:37:15.068Z,1024.86
2019-03-19T11:38:15.086Z,1024.94
2019-03-19T11:39:15.084Z,1024.84
2019-03-19T11:40:15.090Z,1024.82
2019-03-19T11:41:15.098Z,1024.84
2019-03-19T11:42:15.105Z,1024.82
2019-03-19T11:43:15.119Z,1024.86
2019-03-19T11:44:15.126Z,1024.82
2019-03-19T11:45:15.133Z,1024.86
2019-03-19T11:46:15.140Z,1024.77
2019-03-19T11:47:15.142Z,1024.78
2019-03-19T11:48:15.151Z,1024.75
2019-03-19T11:49:15.155Z,1024.74
2019-03-19T11:50:15.162Z,1024.73
2019-03-19T11:51:15.160Z,1024.73
2019-03-19T11:52:15.166Z,1024.74
2019-03-19T11:53:15.167Z,1024.68
2019-03-19T11:54:15.171Z,1024.72
2019-03-19T11:55:15.180Z,1024.72
2019-03-19T11:56:15.180Z,1024.68
2019-03-19T11:57:15.186Z,1024.66
2019-03-19T11:58:15.189Z,1024.60
2019-03-19T11:59:15.192Z,1024.65
2019-03-19T12:00:15.188Z,1024.65
2019-03-19T12:01:15.188Z,1024.69
2019-03-19T12:02:25.351Z,1024.67
2019-03-19T12:03:16.346Z,1024.65
2019-03-19T12:04:15.198Z,1024.58
2019-03-19T12:05:15.196Z,1024.55